sensor_id;sensor_type;location;lat;lon;timestamp;pressure;altitude;pressure_sealevel;temperature;humidity
59545;BME280;45368;55.002;-1.592;2023-03-12T00:00:46;99508.95;;;-1.01;72.94
59545;BME280;45368;55.002;-1.592;2023-03-12T00:03:14;99500.47;;;-0.49;72.86
59545;BME280;45368;55.002;-1.592;2023-03-12T00:05:43;99496.02;;;-0.45;73.44
59545;BME280;45368;55.002;-1.592;2023-03-12T00:08:10;99486.38;;;-0.19;72.92
59545;BME280;45368;55.002;-1.592;2023-03-12T00:10:39;99485.72;;;-0.35;73.82
59545;BME280;45368;55.002;-1.592;2023-03-12T00:13:07;99475.64;;;-0.34;73.05
59545;BME280;45368;55.002;-1.592;2023-03-12T00:15:36;99473.10;;;-0.58;74.27
59545;BME280;45368;55.002;-1.592;2023-03-12T00:18:03;99472.01;;;-0.52;74.13
59545;BME280;45368;55.002;-1.592;2023-03-12T00:20:31;99462.98;;;-0.34;74.78
59545;BME280;45368;55.002;-1.592;2023-03-12T00:23:00;99458.38;;;-0.91;75.58
59545;BME280;45368;55.002;-1.592;2023-03-12T00:25:28;99447.52;;;-0.40;73.80
59545;BME280;45368;55.002;-1.592;2023-03-12T00:27:55;99440.53;;;-0.44;73.22
59545;BME280;45368;55.002;-1.592;2023-03-12T00:30:23;99424.02;;;-0.08;73.85
59545;BME280;45368;55.002;-1.592;2023-03-12T00:32:50;99420.01;;;-0.82;76.01
59545;BME280;45368;55.002;-1.592;2023-03-12T00:35:18;99416.46;;;-0.72;76.84
59545;BME280;45368;55.002;-1.592;2023-03-12T00:37:45;99426.00;;;-1.10;77.30
59545;BME280;45368;55.002;-1.592;2023-03-12T00:40:12;99434.37;;;-0.64;75.17
59545;BME280;45368;55.002;-1.592;2023-03-12T00:42:40;99430.99;;;-0.09;73.12
59545;BME280;45368;55.002;-1.592;2023-03-12T00:45:08;99434.14;;;-0.92;75.26
59545;BME280;45368;55.002;-1.592;2023-03-12T00:47:35;99433.32;;;-0.21;73.71
59545;BME280;45368;55.002;-1.592;2023-03-12T00:50:03;99440.02;;;0.37;72.35
59545;BME280;45368;55.002;-1.592;2023-03-12T00:52:30;99440.40;;;-0.90;76.30
59545;BME280;45368;55.002;-1.592;2023-03-12T00:54:57;99426.85;;;-0.55;75.70
59545;BME280;45368;55.002;-1.592;2023-03-12T00:57:25;99426.82;;;-0.40;75.16
59545;BME280;45368;55.002;-1.592;2023-03-12T00:59:52;99422.96;;;-0.14;73.71
59545;BME280;45368;55.002;-1.592;2023-03-12T01:02:19;99415.85;;;-0.81;76.54
59545;BME280;45368;55.002;-1.592;2023-03-12T01:04:46;99415.22;;;-0.88;76.64
59545;BME280;45368;55.002;-1.592;2023-03-12T01:07:13;99410.06;;;-0.66;76.48
59545;BME280;45368;55.002;-1.592;2023-03-12T01:09:41;99393.51;;;-0.47;76.69
59545;BME280;45368;55.002;-1.592;2023-03-12T01:12:08;99382.81;;;-0.77;77.12
59545;BME280;45368;55.002;-1.592;2023-03-12T01:14:36;99373.50;;;-1.16;78.79
59545;BME280;45368;55.002;-1.592;2023-03-12T01:17:03;99369.40;;;-1.14;78.32
59545;BME280;45368;55.002;-1.592;2023-03-12T01:19:30;99369.67;;;-1.24;78.80
59545;BME280;45368;55.002;-1.592;2023-03-12T01:21:58;99368.04;;;-1.49;78.98
59545;BME280;45368;55.002;-1.592;2023-03-12T01:24:25;99366.72;;;-1.20;79.86
59545;BME280;45368;55.002;-1.592;2023-03-12T01:26:53;99343.42;;;-0.86;79.24
59545;BME280;45368;55.002;-1.592;2023-03-12T01:29:20;99341.57;;;-1.27;79.46
59545;BME280;45368;55.002;-1.592;2023-03-12T01:31:48;99341.77;;;-1.12;79.46
59545;BME280;45368;55.002;-1.592;2023-03-12T01:34:15;99337.31;;;-0.91;80.13
59545;BME280;45368;55.002;-1.592;2023-03-12T01:36:43;99337.10;;;-1.21;80.31
59545;BME280;45368;55.002;-1.592;2023-03-12T01:39:10;99330.99;;;-1.35;79.95
59545;BME280;45368;55.002;-1.592;2023-03-12T01:41:37;99324.67;;;-1.12;80.27
59545;BME280;45368;55.002;-1.592;2023-03-12T01:44:05;99313.56;;;-1.26;79.17
59545;BME280;45368;55.002;-1.592;2023-03-12T01:46:34;99318.91;;;-1.33;80.89
59545;BME280;45368;55.002;-1.592;2023-03-12T01:49:06;99318.50;;;-1.14;80.77
59545;BME280;45368;55.002;-1.592;2023-03-12T01:51:38;99321.79;;;-1.46;81.12
59545;BME280;45368;55.002;-1.592;2023-03-12T01:54:09;99309.82;;;-1.03;79.17
59545;BME280;45368;55.002;-1.592;2023-03-12T01:56:39;99300.34;;;-1.24;79.42
59545;BME280;45368;55.002;-1.592;2023-03-12T01:59:12;99289.68;;;-0.94;79.64
59545;BME280;45368;55.002;-1.592;2023-03-12T02:01:41;99275.53;;;-1.19;79.54
59545;BME280;45368;55.002;-1.592;2023-03-12T02:04:09;99275.45;;;-0.58;77.63
59545;BME280;45368;55.002;-1.592;2023-03-12T02:06:40;99276.69;;;-0.88;79.59
59545;BME280;45368;55.002;-1.592;2023-03-12T02:09:10;99273.20;;;-1.06;80.30
59545;BME280;45368;55.002;-1.592;2023-03-12T02:11:38;99269.82;;;-0.99;79.43
59545;BME280;45368;55.002;-1.592;2023-03-12T02:14:05;99270.32;;;-1.19;80.92
59545;BME280;45368;55.002;-1.592;2023-03-12T02:16:33;99258.01;;;-1.15;80.72
59545;BME280;45368;55.002;-1.592;2023-03-12T02:19:04;99248.64;;;-0.19;78.24
59545;BME280;45368;55.002;-1.592;2023-03-12T02:21:37;99246.18;;;-1.23;79.57
59545;BME280;45368;55.002;-1.592;2023-03-12T02:24:10;99238.52;;;-1.04;79.81
59545;BME280;45368;55.002;-1.592;2023-03-12T02:26:41;99239.99;;;-0.98;80.07
59545;BME280;45368;55.002;-1.592;2023-03-12T02:29:09;99239.31;;;-0.60;79.21
59545;BME280;45368;55.002;-1.592;2023-03-12T02:31:41;99235.02;;;-0.52;78.39
59545;BME280;45368;55.002;-1.592;2023-03-12T02:34:10;99238.04;;;-0.29;77.64
59545;BME280;45368;55.002;-1.592;2023-03-12T02:36:37;99224.22;;;-0.91;78.43
59545;BME280;45368;55.002;-1.592;2023-03-12T02:39:05;99224.06;;;-0.88;79.76
59545;BME280;45368;55.002;-1.592;2023-03-12T02:41:35;99215.25;;;-0.57;78.25
59545;BME280;45368;55.002;-1.592;2023-03-12T02:44:06;99208.36;;;-0.23;77.46
59545;BME280;45368;55.002;-1.592;2023-03-12T02:46:38;99206.02;;;-0.47;77.33
59545;BME280;45368;55.002;-1.592;2023-03-12T02:49:06;99201.34;;;-0.87;77.90
59545;BME280;45368;55.002;-1.592;2023-03-12T02:51:34;99191.47;;;-0.89;78.32
59545;BME280;45368;55.002;-1.592;2023-03-12T02:54:02;99192.67;;;-0.51;78.55
59545;BME280;45368;55.002;-1.592;2023-03-12T02:56:30;99188.85;;;-0.35;78.05
59545;BME280;45368;55.002;-1.592;2023-03-12T02:58:57;99193.69;;;-0.63;78.03
59545;BME280;45368;55.002;-1.592;2023-03-12T03:01:25;99173.78;;;-0.71;78.26
59545;BME280;45368;55.002;-1.592;2023-03-12T03:03:52;99174.79;;;-0.61;78.08
59545;BME280;45368;55.002;-1.592;2023-03-12T03:06:20;99169.78;;;-0.53;78.30
59545;BME280;45368;55.002;-1.592;2023-03-12T03:08:47;99163.27;;;-0.75;78.49
59545;BME280;45368;55.002;-1.592;2023-03-12T03:11:19;99168.69;;;-0.44;78.64
59545;BME280;45368;55.002;-1.592;2023-03-12T03:13:47;99166.50;;;-0.62;78.11
59545;BME280;45368;55.002;-1.592;2023-03-12T03:16:14;99168.27;;;-0.60;78.42
59545;BME280;45368;55.002;-1.592;2023-03-12T03:18:41;99164.08;;;0.08;75.94
59545;BME280;45368;55.002;-1.592;2023-03-12T03:21:09;99162.11;;;-0.42;78.38
59545;BME280;45368;55.002;-1.592;2023-03-12T03:23:37;99155.02;;;-0.56;77.66
59545;BME280;45368;55.002;-1.592;2023-03-12T03:26:04;99150.94;;;-0.53;78.95
59545;BME280;45368;55.002;-1.592;2023-03-12T03:28:32;99143.11;;;-0.32;78.35
59545;BME280;45368;55.002;-1.592;2023-03-12T03:30:59;99138.00;;;0.28;75.24
59545;BME280;45368;55.002;-1.592;2023-03-12T03:33:26;99142.95;;;0.25;75.39
59545;BME280;45368;55.002;-1.592;2023-03-12T03:35:55;99147.96;;;-0.26;77.68
59545;BME280;45368;55.002;-1.592;2023-03-12T03:38:22;99149.71;;;-0.43;77.47
59545;BME280;45368;55.002;-1.592;2023-03-12T03:40:50;99145.83;;;-0.26;76.72
59545;BME280;45368;55.002;-1.592;2023-03-12T03:43:17;99150.91;;;-0.27;77.19
59545;BME280;45368;55.002;-1.592;2023-03-12T03:45:45;99149.67;;;-0.13;76.16
59545;BME280;45368;55.002;-1.592;2023-03-12T03:48:13;99141.94;;;-0.02;76.14
59545;BME280;45368;55.002;-1.592;2023-03-12T03:50:41;99144.15;;;-0.04;74.52
59545;BME280;45368;55.002;-1.592;2023-03-12T03:53:08;99144.03;;;-0.19;74.71
59545;BME280;45368;55.002;-1.592;2023-03-12T03:55:36;99137.86;;;0.59;73.49
59545;BME280;45368;55.002;-1.592;2023-03-12T03:58:04;99144.69;;;-0.05;74.53
59545;BME280;45368;55.002;-1.592;2023-03-12T04:00:32;99146.13;;;0.03;74.88
59545;BME280;45368;55.002;-1.592;2023-03-12T04:02:59;99143.03;;;0.31;73.76
59545;BME280;45368;55.002;-1.592;2023-03-12T04:05:26;99135.15;;;0.91;70.61
59545;BME280;45368;55.002;-1.592;2023-03-12T04:07:59;99135.61;;;0.71;72.25
59545;BME280;45368;55.002;-1.592;2023-03-12T04:10:26;99137.23;;;-0.11;73.29
59545;BME280;45368;55.002;-1.592;2023-03-12T04:12:54;99132.46;;;1.02;71.61
59545;BME280;45368;55.002;-1.592;2023-03-12T04:15:22;99136.40;;;0.37;72.63
59545;BME280;45368;55.002;-1.592;2023-03-12T04:17:49;99129.39;;;0.56;71.98
59545;BME280;45368;55.002;-1.592;2023-03-12T04:20:17;99130.32;;;0.08;73.77
59545;BME280;45368;55.002;-1.592;2023-03-12T04:22:44;99118.98;;;1.01;72.39
59545;BME280;45368;55.002;-1.592;2023-03-12T04:25:11;99121.52;;;0.89;71.01
59545;BME280;45368;55.002;-1.592;2023-03-12T04:27:39;99125.27;;;1.03;70.83
59545;BME280;45368;55.002;-1.592;2023-03-12T04:30:08;99123.43;;;0.74;71.79
59545;BME280;45368;55.002;-1.592;2023-03-12T04:32:36;99125.99;;;0.70;72.42
59545;BME280;45368;55.002;-1.592;2023-03-12T04:35:04;99124.25;;;1.77;68.49
59545;BME280;45368;55.002;-1.592;2023-03-12T04:37:32;99116.33;;;2.23;66.75
59545;BME280;45368;55.002;-1.592;2023-03-12T04:40:01;99120.33;;;1.68;67.09
59545;BME280;45368;55.002;-1.592;2023-03-12T04:42:28;99115.29;;;2.26;66.03
59545;BME280;45368;55.002;-1.592;2023-03-12T04:44:56;99115.03;;;2.52;65.88
59545;BME280;45368;55.002;-1.592;2023-03-12T04:47:22;99115.97;;;2.28;66.51
59545;BME280;45368;55.002;-1.592;2023-03-12T04:49:50;99111.48;;;2.07;66.61
59545;BME280;45368;55.002;-1.592;2023-03-12T04:52:18;99116.79;;;1.80;67.71
59545;BME280;45368;55.002;-1.592;2023-03-12T04:54:45;99112.93;;;2.06;67.23
59545;BME280;45368;55.002;-1.592;2023-03-12T04:57:12;99107.56;;;1.91;67.83
59545;BME280;45368;55.002;-1.592;2023-03-12T04:59:40;99103.31;;;2.11;67.91
59545;BME280;45368;55.002;-1.592;2023-03-12T05:02:07;99103.52;;;1.41;69.15
59545;BME280;45368;55.002;-1.592;2023-03-12T05:04:35;99096.41;;;2.02;68.28
59545;BME280;45368;55.002;-1.592;2023-03-12T05:07:02;99088.68;;;2.19;68.08
59545;BME280;45368;55.002;-1.592;2023-03-12T05:09:30;99079.41;;;2.39;66.62
59545;BME280;45368;55.002;-1.592;2023-03-12T05:12:00;99069.43;;;3.23;65.00
59545;BME280;45368;55.002;-1.592;2023-03-12T05:14:27;99070.09;;;3.67;63.82
59545;BME280;45368;55.002;-1.592;2023-03-12T05:16:55;99074.40;;;3.26;63.61
59545;BME280;45368;55.002;-1.592;2023-03-12T05:19:22;99071.33;;;3.68;62.80
59545;BME280;45368;55.002;-1.592;2023-03-12T05:21:49;99069.83;;;4.02;61.46
59545;BME280;45368;55.002;-1.592;2023-03-12T05:24:16;99072.46;;;3.28;63.74
59545;BME280;45368;55.002;-1.592;2023-03-12T05:26:44;99073.42;;;3.69;62.95
59545;BME280;45368;55.002;-1.592;2023-03-12T05:29:11;99077.17;;;3.35;64.66
59545;BME280;45368;55.002;-1.592;2023-03-12T05:31:38;99078.09;;;4.27;62.63
59545;BME280;45368;55.002;-1.592;2023-03-12T05:34:06;99083.80;;;4.72;61.64
59545;BME280;45368;55.002;-1.592;2023-03-12T05:36:33;99096.29;;;3.78;64.51
59545;BME280;45368;55.002;-1.592;2023-03-12T05:39:00;99087.97;;;5.10;61.15
59545;BME280;45368;55.002;-1.592;2023-03-12T05:41:28;99094.30;;;5.64;59.99
59545;BME280;45368;55.002;-1.592;2023-03-12T05:43:57;99101.37;;;5.75;59.82
59545;BME280;45368;55.002;-1.592;2023-03-12T05:46:25;99102.38;;;5.45;60.72
59545;BME280;45368;55.002;-1.592;2023-03-12T05:48:53;99091.09;;;5.40;61.58
59545;BME280;45368;55.002;-1.592;2023-03-12T05:51:20;99089.71;;;4.77;63.31
59545;BME280;45368;55.002;-1.592;2023-03-12T05:53:48;99097.60;;;5.00;64.67
59545;BME280;45368;55.002;-1.592;2023-03-12T05:56:17;99095.28;;;4.66;65.88
59545;BME280;45368;55.002;-1.592;2023-03-12T05:58:46;99089.99;;;4.69;65.82
59545;BME280;45368;55.002;-1.592;2023-03-12T06:01:16;99082.28;;;5.54;64.11
59545;BME280;45368;55.002;-1.592;2023-03-12T06:03:45;99074.96;;;5.61;64.43
59545;BME280;45368;55.002;-1.592;2023-03-12T06:06:12;99081.45;;;6.05;63.26
59545;BME280;45368;55.002;-1.592;2023-03-12T06:08:41;99082.53;;;5.79;65.10
59545;BME280;45368;55.002;-1.592;2023-03-12T06:11:08;99089.29;;;6.12;64.72
59545;BME280;45368;55.002;-1.592;2023-03-12T06:13:36;99089.01;;;6.24;64.44
59545;BME280;45368;55.002;-1.592;2023-03-12T06:16:05;99089.21;;;5.75;66.05
59545;BME280;45368;55.002;-1.592;2023-03-12T06:18:34;99089.48;;;6.28;65.10
59545;BME280;45368;55.002;-1.592;2023-03-12T06:21:09;99083.15;;;6.42;64.66
59545;BME280;45368;55.002;-1.592;2023-03-12T06:23:36;99078.72;;;6.02;65.84
59545;BME280;45368;55.002;-1.592;2023-03-12T06:26:05;99082.82;;;6.15;65.40
59545;BME280;45368;55.002;-1.592;2023-03-12T06:28:33;99092.08;;;6.32;65.48
59545;BME280;45368;55.002;-1.592;2023-03-12T06:31:00;99086.15;;;6.09;67.13
59545;BME280;45368;55.002;-1.592;2023-03-12T06:33:27;99076.75;;;5.73;68.71
59545;BME280;45368;55.002;-1.592;2023-03-12T06:35:55;99077.59;;;5.90;68.71
59545;BME280;45368;55.002;-1.592;2023-03-12T06:38:23;99074.07;;;5.80;71.53
59545;BME280;45368;55.002;-1.592;2023-03-12T06:40:55;99082.55;;;5.80;72.49
59545;BME280;45368;55.002;-1.592;2023-03-12T06:43:23;99079.46;;;5.34;73.78
59545;BME280;45368;55.002;-1.592;2023-03-12T06:45:54;99086.18;;;5.66;73.06
59545;BME280;45368;55.002;-1.592;2023-03-12T06:48:22;99083.02;;;5.25;72.42
59545;BME280;45368;55.002;-1.592;2023-03-12T06:50:50;99075.94;;;6.10;72.03
59545;BME280;45368;55.002;-1.592;2023-03-12T06:53:17;99061.73;;;5.69;72.96
59545;BME280;45368;55.002;-1.592;2023-03-12T06:55:48;99066.30;;;5.58;72.37
59545;BME280;45368;55.002;-1.592;2023-03-12T06:58:16;99067.02;;;5.42;73.10
59545;BME280;45368;55.002;-1.592;2023-03-12T07:00:43;99075.97;;;5.46;71.95
59545;BME280;45368;55.002;-1.592;2023-03-12T07:03:10;99080.87;;;5.41;71.57
59545;BME280;45368;55.002;-1.592;2023-03-12T07:05:38;99092.06;;;5.95;69.99
59545;BME280;45368;55.002;-1.592;2023-03-12T07:08:05;99107.48;;;5.88;69.37
59545;BME280;45368;55.002;-1.592;2023-03-12T07:10:33;99108.47;;;6.52;68.40
59545;BME280;45368;55.002;-1.592;2023-03-12T07:13:05;99107.82;;;6.37;68.15
59545;BME280;45368;55.002;-1.592;2023-03-12T07:15:33;99110.68;;;6.51;67.03
59545;BME280;45368;55.002;-1.592;2023-03-12T07:18:13;99115.90;;;6.58;68.35
59545;BME280;45368;55.002;-1.592;2023-03-12T07:20:42;99102.23;;;5.96;68.20
59545;BME280;45368;55.002;-1.592;2023-03-12T07:23:10;99104.83;;;6.15;67.14
59545;BME280;45368;55.002;-1.592;2023-03-12T07:25:39;99100.50;;;6.71;65.25
59545;BME280;45368;55.002;-1.592;2023-03-12T07:28:17;99102.62;;;6.79;65.53
59545;BME280;45368;55.002;-1.592;2023-03-12T07:30:46;99097.29;;;7.60;63.29
59545;BME280;45368;55.002;-1.592;2023-03-12T07:33:13;99088.58;;;7.10;63.49
59545;BME280;45368;55.002;-1.592;2023-03-12T07:35:40;99094.49;;;7.47;62.65
59545;BME280;45368;55.002;-1.592;2023-03-12T07:38:08;99095.18;;;7.08;63.64
59545;BME280;45368;55.002;-1.592;2023-03-12T07:40:35;99101.31;;;7.96;61.22
59545;BME280;45368;55.002;-1.592;2023-03-12T07:43:03;99101.40;;;7.96;60.33
59545;BME280;45368;55.002;-1.592;2023-03-12T07:45:31;99104.62;;;7.16;62.20
59545;BME280;45368;55.002;-1.592;2023-03-12T07:47:58;99107.52;;;7.36;62.91
59545;BME280;45368;55.002;-1.592;2023-03-12T07:50:26;99110.39;;;7.49;62.30
59545;BME280;45368;55.002;-1.592;2023-03-12T07:52:53;99127.82;;;7.38;62.81
59545;BME280;45368;55.002;-1.592;2023-03-12T07:55:20;99129.46;;;6.49;64.57
59545;BME280;45368;55.002;-1.592;2023-03-12T07:57:48;99123.41;;;5.90;66.50
59545;BME280;45368;55.002;-1.592;2023-03-12T08:00:15;99128.65;;;7.21;63.81
59545;BME280;45368;55.002;-1.592;2023-03-12T08:02:43;99128.36;;;6.73;64.40
59545;BME280;45368;55.002;-1.592;2023-03-12T08:05:11;99130.23;;;6.70;64.95
59545;BME280;45368;55.002;-1.592;2023-03-12T08:07:39;99133.30;;;7.22;64.52
59545;BME280;45368;55.002;-1.592;2023-03-12T08:10:09;99131.39;;;7.16;63.23
59545;BME280;45368;55.002;-1.592;2023-03-12T08:12:36;99141.77;;;6.93;63.69
59545;BME280;45368;55.002;-1.592;2023-03-12T08:15:05;99140.02;;;6.89;63.95
59545;BME280;45368;55.002;-1.592;2023-03-12T08:17:32;99128.29;;;7.57;62.83
59545;BME280;45368;55.002;-1.592;2023-03-12T08:19:59;99126.46;;;7.94;61.97
59545;BME280;45368;55.002;-1.592;2023-03-12T08:22:26;99128.01;;;7.67;61.77
59545;BME280;45368;55.002;-1.592;2023-03-12T08:24:54;99131.75;;;7.27;62.92
59545;BME280;45368;55.002;-1.592;2023-03-12T08:27:21;99132.68;;;7.16;63.26
59545;BME280;45368;55.002;-1.592;2023-03-12T08:29:48;99137.99;;;7.62;61.83
59545;BME280;45368;55.002;-1.592;2023-03-12T08:32:16;99132.06;;;8.08;61.49
59545;BME280;45368;55.002;-1.592;2023-03-12T08:34:43;99128.54;;;7.70;61.59
59545;BME280;45368;55.002;-1.592;2023-03-12T08:37:10;99131.55;;;7.68;60.96
59545;BME280;45368;55.002;-1.592;2023-03-12T08:39:38;99125.71;;;8.06;60.97
59545;BME280;45368;55.002;-1.592;2023-03-12T08:42:07;99125.58;;;7.81;61.10
59545;BME280;45368;55.002;-1.592;2023-03-12T08:44:34;99120.50;;;8.10;61.37
59545;BME280;45368;55.002;-1.592;2023-03-12T08:47:01;99118.25;;;8.15;61.41
59545;BME280;45368;55.002;-1.592;2023-03-12T08:49:29;99115.01;;;8.20;61.75
59545;BME280;45368;55.002;-1.592;2023-03-12T08:51:56;99109.83;;;8.46;60.78
59545;BME280;45368;55.002;-1.592;2023-03-12T08:54:24;99102.42;;;8.28;60.65
59545;BME280;45368;55.002;-1.592;2023-03-12T08:56:52;99098.05;;;8.89;58.72
59545;BME280;45368;55.002;-1.592;2023-03-12T08:59:19;99102.89;;;9.05;57.83
59545;BME280;45368;55.002;-1.592;2023-03-12T09:01:48;99090.22;;;8.82;58.39
59545;BME280;45368;55.002;-1.592;2023-03-12T09:04:15;99092.44;;;8.87;58.81
59545;BME280;45368;55.002;-1.592;2023-03-12T09:06:43;99092.77;;;8.44;59.69
59545;BME280;45368;55.002;-1.592;2023-03-12T09:09:10;99098.48;;;8.89;58.67
59545;BME280;45368;55.002;-1.592;2023-03-12T09:11:45;99089.04;;;9.02;58.92
59545;BME280;45368;55.002;-1.592;2023-03-12T09:14:13;99094.09;;;8.51;58.83
59545;BME280;45368;55.002;-1.592;2023-03-12T09:16:40;99088.64;;;9.56;56.34
59545;BME280;45368;55.002;-1.592;2023-03-12T09:19:07;99083.12;;;9.87;55.85
59545;BME280;45368;55.002;-1.592;2023-03-12T09:21:34;99089.33;;;9.47;56.10
59545;BME280;45368;55.002;-1.592;2023-03-12T09:24:03;99085.21;;;10.06;55.05
59545;BME280;45368;55.002;-1.592;2023-03-12T09:26:31;99078.48;;;10.33;54.07
59545;BME280;45368;55.002;-1.592;2023-03-12T09:28:58;99083.07;;;9.71;55.09
59545;BME280;45368;55.002;-1.592;2023-03-12T09:31:26;99080.76;;;9.56;56.14
59545;BME280;45368;55.002;-1.592;2023-03-12T09:33:57;99085.76;;;9.80;55.71
59545;BME280;45368;55.002;-1.592;2023-03-12T09:36:26;99077.80;;;9.73;55.49
59545;BME280;45368;55.002;-1.592;2023-03-12T09:38:54;99076.84;;;9.19;57.57
59545;BME280;45368;55.002;-1.592;2023-03-12T09:41:24;99077.71;;;9.09;57.11
59545;BME280;45368;55.002;-1.592;2023-03-12T09:43:55;99078.27;;;9.67;56.15
59545;BME280;45368;55.002;-1.592;2023-03-12T09:46:28;99074.98;;;9.83;55.25
59545;BME280;45368;55.002;-1.592;2023-03-12T09:49:03;99070.45;;;9.27;56.98
59545;BME280;45368;55.002;-1.592;2023-03-12T09:51:35;99064.16;;;9.11;56.67
59545;BME280;45368;55.002;-1.592;2023-03-12T09:54:07;99056.66;;;9.09;57.05
59545;BME280;45368;55.002;-1.592;2023-03-12T09:56:39;99055.83;;;9.47;55.54
59545;BME280;45368;55.002;-1.592;2023-03-12T09:59:10;99046.91;;;9.00;56.60
59545;BME280;45368;55.002;-1.592;2023-03-12T10:01:43;99040.43;;;9.60;55.39
59545;BME280;45368;55.002;-1.592;2023-03-12T10:04:23;99047.12;;;9.30;56.70
59545;BME280;45368;55.002;-1.592;2023-03-12T10:06:59;99052.68;;;9.43;57.30
59545;BME280;45368;55.002;-1.592;2023-03-12T10:09:35;99051.01;;;9.52;56.89
59545;BME280;45368;55.002;-1.592;2023-03-12T10:12:13;99041.78;;;9.48;56.63
59545;BME280;45368;55.002;-1.592;2023-03-12T10:15:00;99040.96;;;9.14;57.84
59545;BME280;45368;55.002;-1.592;2023-03-12T10:17:39;99038.88;;;9.48;57.39
59545;BME280;45368;55.002;-1.592;2023-03-12T10:20:26;99048.60;;;9.55;57.09
59545;BME280;45368;55.002;-1.592;2023-03-12T10:23:03;99048.09;;;9.56;56.94
59545;BME280;45368;55.002;-1.592;2023-03-12T10:25:38;99074.92;;;9.04;59.22
59545;BME280;45368;55.002;-1.592;2023-03-12T10:28:14;99076.86;;;9.10;58.69
59545;BME280;45368;55.002;-1.592;2023-03-12T10:30:49;99077.76;;;9.26;58.98
59545;BME280;45368;55.002;-1.592;2023-03-12T10:33:19;99072.92;;;9.64;57.16
59545;BME280;45368;55.002;-1.592;2023-03-12T10:35:46;99077.03;;;8.95;57.91
59545;BME280;45368;55.002;-1.592;2023-03-12T10:38:17;99077.49;;;9.77;57.22
59545;BME280;45368;55.002;-1.592;2023-03-12T10:40:46;99086.31;;;9.49;58.03
59545;BME280;45368;55.002;-1.592;2023-03-12T10:43:13;99075.97;;;9.51;57.48
59545;BME280;45368;55.002;-1.592;2023-03-12T10:45:46;99071.92;;;9.92;56.86
59545;BME280;45368;55.002;-1.592;2023-03-12T10:48:19;99084.02;;;9.71;57.37
59545;BME280;45368;55.002;-1.592;2023-03-12T10:51:01;99086.52;;;9.88;56.00
59545;BME280;45368;55.002;-1.592;2023-03-12T10:53:29;99094.55;;;9.00;59.49
59545;BME280;45368;55.002;-1.592;2023-03-12T10:56:00;99093.17;;;9.08;59.77
59545;BME280;45368;55.002;-1.592;2023-03-12T10:58:32;99093.14;;;8.77;59.97
59545;BME280;45368;55.002;-1.592;2023-03-12T11:01:04;99096.67;;;8.35;61.19
59545;BME280;45368;55.002;-1.592;2023-03-12T11:03:32;99098.29;;;8.85;59.90
59545;BME280;45368;55.002;-1.592;2023-03-12T11:06:01;99093.64;;;9.04;58.61
59545;BME280;45368;55.002;-1.592;2023-03-12T11:08:30;99096.48;;;9.26;58.20
59545;BME280;45368;55.002;-1.592;2023-03-12T11:11:00;99092.84;;;9.15;58.91
59545;BME280;45368;55.002;-1.592;2023-03-12T11:13:30;99090.97;;;9.13;58.73
59545;BME280;45368;55.002;-1.592;2023-03-12T11:15:59;99086.57;;;9.17;58.13
59545;BME280;45368;55.002;-1.592;2023-03-12T11:18:30;99079.26;;;9.79;56.09
59545;BME280;45368;55.002;-1.592;2023-03-12T11:21:15;99077.49;;;10.03;56.13
59545;BME280;45368;55.002;-1.592;2023-03-12T11:23:46;99070.34;;;10.63;55.21
59545;BME280;45368;55.002;-1.592;2023-03-12T11:26:16;99091.30;;;10.45;55.54
59545;BME280;45368;55.002;-1.592;2023-03-12T11:28:48;99089.96;;;10.11;56.82
59545;BME280;45368;55.002;-1.592;2023-03-12T11:31:21;99100.64;;;10.04;56.49
59545;BME280;45368;55.002;-1.592;2023-03-12T11:33:51;99101.10;;;9.69;57.72
59545;BME280;45368;55.002;-1.592;2023-03-12T11:36:28;99097.66;;;10.26;56.26
59545;BME280;45368;55.002;-1.592;2023-03-12T11:39:02;99122.29;;;9.73;57.92
59545;BME280;45368;55.002;-1.592;2023-03-12T11:41:44;99105.69;;;9.79;57.38
59545;BME280;45368;55.002;-1.592;2023-03-12T11:44:24;99107.37;;;9.92;57.21
59545;BME280;45368;55.002;-1.592;2023-03-12T11:47:02;99089.77;;;10.34;56.83
59545;BME280;45368;55.002;-1.592;2023-03-12T11:49:45;99097.60;;;10.37;56.12
59545;BME280;45368;55.002;-1.592;2023-03-12T11:52:22;99104.72;;;11.55;53.72
59545;BME280;45368;55.002;-1.592;2023-03-12T11:55:59;99106.19;;;11.21;53.60
59545;BME280;45368;55.002;-1.592;2023-03-12T11:58:46;99113.65;;;10.52;56.33
59545;BME280;45368;55.002;-1.592;2023-03-12T12:01:20;99115.98;;;10.28;57.65
59545;BME280;45368;55.002;-1.592;2023-03-12T12:04:03;99122.93;;;10.28;57.08
59545;BME280;45368;55.002;-1.592;2023-03-12T12:06:49;99100.28;;;10.34;56.81
59545;BME280;45368;55.002;-1.592;2023-03-12T12:09:27;99091.39;;;10.57;54.97
59545;BME280;45368;55.002;-1.592;2023-03-12T12:12:08;99092.28;;;10.68;54.14
59545;BME280;45368;55.002;-1.592;2023-03-12T12:14:47;99100.38;;;10.22;56.01
59545;BME280;45368;55.002;-1.592;2023-03-12T12:17:28;99107.98;;;10.69;54.54
59545;BME280;45368;55.002;-1.592;2023-03-12T12:20:15;99105.88;;;10.62;54.60
59545;BME280;45368;55.002;-1.592;2023-03-12T12:22:52;99108.98;;;10.24;55.95
59545;BME280;45368;55.002;-1.592;2023-03-12T12:25:29;99099.83;;;10.26;55.35
59545;BME280;45368;55.002;-1.592;2023-03-12T12:28:28;99096.77;;;10.51;54.58
59545;BME280;45368;55.002;-1.592;2023-03-12T12:31:07;99097.89;;;10.79;53.29
59545;BME280;45368;55.002;-1.592;2023-03-12T12:33:53;99086.34;;;11.69;52.53
59545;BME280;45368;55.002;-1.592;2023-03-12T12:36:23;99066.15;;;10.70;53.72
59545;BME280;45368;55.002;-1.592;2023-03-12T12:39:00;99086.81;;;10.60;53.12
59545;BME280;45368;55.002;-1.592;2023-03-12T12:41:33;99072.29;;;10.40;53.25
59545;BME280;45368;55.002;-1.592;2023-03-12T12:44:05;99077.27;;;11.30;51.64
59545;BME280;45368;55.002;-1.592;2023-03-12T12:46:40;99072.52;;;10.87;52.27
59545;BME280;45368;55.002;-1.592;2023-03-12T12:49:12;99068.37;;;11.09;51.21
59545;BME280;45368;55.002;-1.592;2023-03-12T12:51:45;99059.27;;;10.88;51.54
59545;BME280;45368;55.002;-1.592;2023-03-12T12:54:19;99051.69;;;10.36;52.48
59545;BME280;45368;55.002;-1.592;2023-03-12T12:56:51;99037.25;;;10.48;52.90
59545;BME280;45368;55.002;-1.592;2023-03-12T12:59:29;99039.27;;;10.42;53.97
59545;BME280;45368;55.002;-1.592;2023-03-12T13:02:02;99045.54;;;10.95;52.56
59545;BME280;45368;55.002;-1.592;2023-03-12T13:04:33;99044.40;;;11.03;51.71
59545;BME280;45368;55.002;-1.592;2023-03-12T13:07:28;99038.73;;;10.86;52.58
59545;BME280;45368;55.002;-1.592;2023-03-12T13:09:58;99030.81;;;11.17;51.97